KDLL

Baraboo-Wisconsin Dells Regional Airport

Baraboo, Wisconsin, USA
METAR KDLL 221455Z AUTO 00000KT 10SM OVC007 12/11 A3007 RMK AO2 T01240114
Observed Flight Rules
May-22 @ 14:55 UTC (27 minutes ago) Instrument Flight Rules
Visibility Clouds
10 miles
  • Overcast at 700' AGL
Temperatures Readings
Current 12°C / 54°F
Dewpoint 11°C / 52°F
Humidity 94%
Altimeter 30.07" Hg
Pressure 1018 hPa
Elevation 299
METAR KDLL 221455Z AUTO 00000KT 10SM OVC007 12/11 A3007 RMK AO2 T01240114
Observed Flight Rules
May-22 @ 14:55 UTC
(27 minutes ago)
IFR
Clouds
  • Overcast at 700' AGL
Temperature Dewpoint
12°C / 54°F 11°C / 52°F
Humidity Altimeter Pressure
94% 30.07" Hg 1018 hPa